Aérodrome :
LOGIN :

S'inscrire | Disclaimer

   EN    FR    IT 

 










Légende :    VFR   VFR Marginal   IFR   IFR Intensif   IFR Très Intensif
Visi : 
Plafond : 
>= 8 km
>= 3000ft
5 à 8 km
1000 à 3000 ft
1500m à 5 km
500 à 1000 ft
800 à 1500m
200 à 500 ft
< 800m
< 200 ft
Symboles :   Orages  Brouillard  Fortes neiges  Fortes précipitations  Vent > 20 kt
SIGMETs :   Divers  Orages  Givrage  Turbulence  Onde Orograph.  Cendres Volcan.







- Altitude de l'aérodrome : 6 ft
- Code IATA : PSA


LIRP - Galileo Galilei Pisa

DERNIER METAR :
  • 211545Z 29009KT CAVOK 21/14 Q1019 NOSIG

METARs EXPIRÉS :
  • 211515Z 28009KT CAVOK 21/13 Q1019 NOSIG
  • 211445Z 28009KT CAVOK 21/13 Q1019 NOSIG
  • 211415Z 28009KT CAVOK 22/12 Q1019 NOSIG
  • 211345Z 28008KT CAVOK 22/13 Q1020 NOSIG
  • 211315Z 26009KT CAVOK 22/13 Q1020 NOSIG
  • 211245Z 27009KT CAVOK 22/13 Q1020 NOSIG

TAF TAF LIRP
Valide du 21 à 12h jusqu'au 22 à 12h UTC


211100Z 2112/2212 27013KT 9999 FEW040
BECMG 2119/2121 09003KT
PROB30
TEMPO 2200/2206 5000 BR
BECMG 2210/2212 27013KT
Pas de NOTAMs connus pour ce terrain.



MET'MAP, la Météo Aéronautique d'un coup d'oeil ! - Copyright ORBIFLY Décembre 2007 - Disclaimer

ORBIFLY MET'MAP TEAM :

Programmation & Développement : Alexandra Zaïnal
Conception & Développement : Baudouin d'Aumeries
Co-Programmation & Développement : Marc-Olivier Méhu
Soutien technique & logistique : Manuel Goepfert

Contact : metmap@orbifly.com




SOURCES & CREDITS :

   NOAA